Tiempo atmosférico en la estación meteorológica de Mula, Murcia (290 m.)



Fecha
DESCASC
Temp. máxima en grados centígrados (hora)
DESCASC
Temp. mínima en grados centígrados (hora)
DESCASC
Temp. media en grados centígrados
DESCASC
Racha de viento máxima en m/sg (hora)
DESCASC
Velocidad máxima media en intervalos de 10 minutos(hora)
DESCASC
Precipitaciones diarias en mm
DESCASC
Precipitaciones de 00:00 a 06:00 en mm
DESCASC
Precipitaciones de 06:00 a 12:00 en mm
DESCASC
Precipitaciones de 12:00 a 18:00 en mm
DESCASC
Precipitaciones de 18:00 a 24:00 en mm
DESCASC
13-01-2021 17.2 (15:40) 3.5 (08:30) 10.4 8.06 (06:10) 5.28 (10:40) 0 0 0 0 0
12-01-2021 11.2 (15:50) 0.8 (07:10) 6 10.28 (13:00) 7.22 (12:00) 0 0 0 0 0
11-01-2021 10.7 (15:10) 3.2 (23:50) 6.9 6.94 (09:20) 3.89 (10:40) 0 0 0 0 0
10-01-2021 7.8 (15:50) 2.6 (02:40) 5.2 6.94 (09:20) 4.17 (12:30) 1 0.4 0 0.6 0
09-01-2021 9.1 (15:20) 3.1 (00:00) 6.1 6.94 (03:10) 4.72 (18:10) 4.8 4.8 0 0 0
08-01-2021 4 (22:00) 2.1 (00:00) 3 6.67 (05:20) 4.17 (09:20) 24.6 7.8 5.8 5.4 5.6
07-01-2021 6.4 (00:00) 2 (00:00) 4.2 6.39 (18:00) 3.61 (16:10) 14.4 5.6 5.6 2.4 0.8
06-01-2021 10.4 (15:30) 2.6 (00:00) 6.5 6.67 (22:40) 3.61 (22:40) 1 0 0 0 1
05-01-2021 11.4 (14:30) 0.1 (00:00) 5.7 8.33 (13:10) 5 (12:30) 0 0 0 0 0
04-01-2021 13.3 (14:50) 1.2 (00:00) 7.3 10 (14:30) 5.28 (13:00) 0 0 0 0 0
03-01-2021 11.2 (14:50) 1.2 (00:00) 6.2 14.44 (01:10) 10 (13:50) 0 0 0 0 0
02-01-2021 10 (13:20) 2.4 (00:00) 6.2 17.78 (17:50) 10.83 (18:00) 0 0 0 0 0
01-01-2021 11.4 (14:10) 2.7 (00:00) 7 17.22 (12:40) 10 (12:40) 0.6 0 0.6 0 0
31-12-2020 15.6 (16:00) -0.2 (00:00) 7.7 6.39 (07:50) 3.89 (04:30) 0 0 0 0 0
30-12-2020 12.6 (15:20) 1.9 (00:00) 7.3 13.06 (12:30) 7.5 (12:30) 0 0 0 0 0
29-12-2020 14 (15:50) 4.2 (00:00) 9.1 13.33 (14:10) 8.61 (13:40) 0 0 0 0 0
28-12-2020 15.5 (15:20) 6.9 (00:00) 11.2 14.72 (13:20) 10.28 (14:00) 0 0 0 0 0
27-12-2020 15.5 (14:20) -0.2 (00:00) 7.6 11.39 (23:00) 7.5 (22:40) 0 0 0 0 0
26-12-2020 11.1 (16:00) 1.3 (00:00) 6.2 11.94 (01:20) 8.06 (00:30) 0 0 0 0 0
25-12-2020 13.6 (14:30) 5.6 (00:00) 9.6 12.5 (23:59) 8.89 (13:20) 0 0 0 0 0
24-12-2020 18.4 (15:30) 7.9 (00:00) 13.1 8.33 (08:00) 5 (13:30) 0 0 0 0 0
23-12-2020 19.8 (16:20) 6.2 (00:00) 13 6.94 (23:50) 3.89 (22:50) 0 0 0 0 0
22-12-2020 18.1 (15:00) 7.5 (00:00) 12.8 6.11 (01:50) 3.89 (01:40) 0 0 0 0 0
21-12-2020 18.6 (15:50) 5.7 (00:00) 12.2 6.39 (08:50) 4.44 (08:50) 0 0 0 0 0
20-12-2020 17.6 (14:10) 8.3 (00:00) 13 7.5 (11:30) 4.72 (11:30) 0 0 0 0 0
19-12-2020 17.1 (13:20) 5.1 (00:00) 11.1 4.72 (08:10) 3.33 (07:20) 0 0 0 0 0

Gráficas

Temp. máximas Temp. mínimas Temp. medias Precipitaciones Rachas de viento máximas Velocidades máximas media en intervalos de 10 minutos

Datos horarios

Fecha y hora oficial Temperatura (ºC) Velocidad del viento (km/h) Dirección del viento Racha (km/h) Dirección de racha Precipitación (mm) Presión (hPa) Tendencia (hPa) Humedad (%)
2021-01-17 23:00:00 6.9 15 Oeste 22 Oeste 0 -- -- 51
2021-01-17 22:00:00 7.7 14 Oeste 22 Oeste 0 -- -- 49
2021-01-17 21:00:00 8.7 15 Oeste 20 Oeste 0 -- -- 46
2021-01-17 20:00:00 13.3 12 Oeste 23 Oeste 0 -- -- 33
2021-01-17 19:00:00 15.1 12 Oeste 18 Noroeste 0 -- -- 23
2021-01-17 18:00:00 16.9 10 Noroeste 15 Oeste 0 -- -- 23
2021-01-17 17:00:00 19.4 8 Noroeste 22 Noroeste 0 -- -- 20
2021-01-17 16:00:00 19.5 13 Noroeste 27 Noroeste 0 -- -- 20
2021-01-17 15:00:00 18.9 14 Noroeste 33 Noroeste 0 -- -- 23
2021-01-17 14:00:00 17.9 15 Noroeste 37 Norte 0 -- -- 23
2021-01-17 13:00:00 16.9 20 Noroeste 33 Noroeste 0 -- -- 23
2021-01-17 12:00:00 14.6 15 Oeste 29 Oeste 0 -- -- 28
2021-01-17 11:00:00 12.4 15 Oeste 34 Noroeste 0 -- -- 30
2021-01-17 10:00:00 10.3 10 Oeste 31 Oeste 0 -- -- 34
2021-01-17 09:00:00 7.8 21 Noroeste 29 Noroeste 0 -- -- 39
2021-01-17 08:00:00 5.3 14 Noroeste 24 Noroeste 0 -- -- 48
2021-01-17 07:00:00 4.2 15 Oeste 23 Oeste 0 -- -- 55
2021-01-17 06:00:00 4.7 14 Oeste 25 Oeste 0 -- -- 54
2021-01-17 05:00:00 4.6 11 Oeste 25 Oeste 0 -- -- 56
2021-01-17 04:00:00 5.6 12 Oeste 28 Oeste 0 -- -- 53
2021-01-17 03:00:00 4.1 19 Oeste 28 Oeste 0 -- -- 61
2021-01-17 02:00:00 3.6 10 Oeste 19 Oeste 0 -- -- 65
2021-01-17 01:00:00 3.6 11 Oeste 21 Oeste 0 -- -- 66
2021-01-17 00:00:00 3.8 13 Oeste 19 Oeste 0 -- -- 67
2021-01-16 23:00:00 5.2 9 Oeste 17 Oeste 0 -- -- 61
2021-01-16 22:00:00 5.5 13 Oeste 22 Sudoeste 0 -- -- 62
2021-01-16 21:00:00 6.5 15 Sudoeste 20 Sudoeste 0 -- -- 58
2021-01-16 20:00:00 7.4 8 Oeste 14 Oeste 0 -- -- 57
2021-01-16 19:00:00 10 4 Noroeste 5 Noroeste 0 -- -- 47
2021-01-16 18:00:00 12.7 0 Calma 6 Sur 0 -- -- 40
2021-01-16 17:00:00 14.7 2 Este 14 Noroeste 0 -- -- 32
2021-01-16 16:00:00 14.9 9 Noroeste 20 Noroeste 0 -- -- 31
2021-01-16 15:00:00 13.9 16 Noroeste 26 Noroeste 0 -- -- 34
2021-01-16 14:00:00 13.2 14 Noroeste 25 Noroeste 0 -- -- 36
2021-01-16 13:00:00 12.4 16 Noroeste 28 Noroeste 0 -- -- 39
2021-01-16 12:00:00 12.1 15 Noroeste 24 Noroeste 0 -- -- 38
2021-01-16 11:00:00 10.5 17 Noroeste 32 Noroeste 0 -- -- 40
2021-01-16 10:00:00 8.5 16 Noroeste 32 Noroeste 0 -- -- 46
2021-01-16 09:00:00 7.3 6 Sudoeste 28 Oeste 0 -- -- 47
2021-01-16 08:00:00 8.4 17 Noroeste 48 Noroeste 0 -- -- 44
2021-01-16 07:00:00 8.5 21 Noroeste 41 Noroeste 0 -- -- 43
2021-01-16 06:00:00 7.7 6 Oeste 19 Sudoeste 0 -- -- 45
2021-01-16 05:00:00 6.4 6 Sudoeste 12 Sur 0 -- -- 47
2021-01-16 04:00:00 7.5 4 Sudoeste 14 Sudoeste 0 -- -- 41
2021-01-16 03:00:00 6.3 9 Sudoeste 18 Oeste 0 -- -- 45
2021-01-16 02:00:00 5.6 13 Sudoeste 19 Sudoeste 0 -- -- 49
2021-01-16 01:00:00 7.3 11 Sudoeste 26 Oeste 0 -- -- 45
2021-01-16 00:00:00 9.5 13 Oeste 22 Noroeste 0 -- -- 37
2021-01-15 23:00:00 8.5 12 Noroeste 20 Noroeste 0 -- -- 39
2021-01-15 22:00:00 6.8 8 Sudoeste 15 Sudoeste 0 -- -- 51
2021-01-15 21:00:00 8.6 6 Oeste 19 Sudoeste 0 -- -- 46
2021-01-15 20:00:00 9.5 11 Sudoeste 22 Sudoeste 0 -- -- 43
2021-01-15 19:00:00 10.8 10 Sudoeste 21 Noroeste 0 -- -- 41
2021-01-15 18:00:00 12.8 18 Noroeste 37 Noroeste 0 -- -- 35
2021-01-15 17:00:00 15.9 10 Noroeste 24 Noroeste 0 -- -- 34
2021-01-15 16:00:00 16.5 11 Oeste 22 Noroeste 0 -- -- 35
2021-01-15 15:00:00 15.9 12 Noroeste 31 Noroeste 0 -- -- 37
2021-01-15 14:00:00 14.6 22 Noroeste 35 Noroeste 0 -- -- 41
2021-01-15 13:00:00 14.2 18 Noroeste 30 Noroeste 0 -- -- 44
2021-01-15 12:00:00 13.1 13 Oeste 28 Oeste 0 -- -- 47
2021-01-15 11:00:00 11.7 10 Oeste 28 Oeste 0 -- -- 50
2021-01-15 10:00:00 8.8 9 Oeste 23 Sudoeste 0 -- -- 59
2021-01-15 09:00:00 6 13 Sudoeste 27 Sudoeste 0 -- -- 62
2021-01-15 08:00:00 7 12 Oeste 26 Oeste 0 -- -- 61
2021-01-15 07:00:00 5.7 10 Oeste 21 Oeste 0 -- -- 65
2021-01-15 06:00:00 6.1 11 Oeste 26 Noroeste 0 -- -- 57
2021-01-15 05:00:00 7.1 13 Oeste 26 Oeste 0 -- -- 51
2021-01-15 04:00:00 8.6 17 Oeste 31 Oeste 0 -- -- 43
2021-01-15 03:00:00 8.6 18 Noroeste 29 Oeste 0 -- -- 40
2021-01-15 02:00:00 9 11 Oeste 28 Oeste 0 -- -- 39
2021-01-15 01:00:00 9.4 17 Noroeste 37 Noroeste 0 -- -- 38
2021-01-15 00:00:00 9.4 8 Noroeste 24 Noroeste 0 -- -- 38
2021-01-14 23:00:00 8.4 10 Sudoeste 16 Oeste 0 -- -- 44
2021-01-14 22:00:00 8.7 9 Oeste 20 Sudoeste 0 -- -- 43
2021-01-14 21:00:00 9.1 13 Oeste 21 Oeste 0 -- -- 43
2021-01-14 20:00:00 10.1 9 Sudoeste 18 Oeste 0 -- -- 40
2021-01-14 19:00:00 11.2 3 Oeste 10 Oeste 0 -- -- 38
2021-01-14 18:00:00 14 5 Noroeste 9 Oeste 0 -- -- 34
2021-01-14 17:00:00 16.4 2 Sudoeste 12 Oeste 0 -- -- 29
2021-01-14 16:00:00 17.7 6 Noroeste 23 Noroeste 0 -- -- 30
2021-01-14 15:00:00 17.2 12 Noroeste 21 Noroeste 0 -- -- 30
2021-01-14 14:00:00 15.9 8 Oeste 21 Oeste 0 -- -- 33
2021-01-14 13:00:00 14.5 10 Oeste 24 Oeste 0 -- -- 33
2021-01-14 12:00:00 12.1 14 Oeste 28 Oeste 0 -- -- 34
2021-01-14 11:00:00 10.4 15 Oeste 28 Oeste 0 -- -- 39
2021-01-14 10:00:00 5.6 9 Oeste 20 Sudoeste 0 -- -- 57
2021-01-14 09:00:00 2.9 11 Oeste 21 Oeste 0 -- -- 65
2021-01-14 08:00:00 3.4 10 Oeste 25 Oeste 0 -- -- 62
2021-01-14 07:00:00 3 13 Oeste 21 Oeste 0 -- -- 66
2021-01-14 06:00:00 3.2 12 Oeste 23 Sudoeste 0 -- -- 65
2021-01-14 05:00:00 2.3 12 Oeste 19 Oeste 0 -- -- 72
2021-01-14 04:00:00 2.4 10 Oeste 18 Sudoeste 0 -- -- 72
2021-01-14 03:00:00 2.8 8 Oeste 15 Sudoeste 0 -- -- 70
2021-01-14 02:00:00 3.3 9 Oeste 19 Noroeste 0 -- -- 68
2021-01-14 01:00:00 3.3 11 Oeste 17 Oeste 0 -- -- 69
2021-01-14 00:00:00 3.7 11 Oeste 17 Oeste 0 -- -- 68
2021-01-13 23:00:00 4.2 8 Oeste 14 Oeste 0 -- -- 67
2021-01-13 22:00:00 4.9 9 Oeste 15 Oeste 0 -- -- 67
2021-01-13 21:00:00 6.1 9 Oeste 15 Oeste 0 -- -- 64
2021-01-13 20:00:00 7.6 10 Oeste 16 Oeste 0 -- -- 60
2021-01-13 19:00:00 9.9 3 Norte 10 Este 0 -- -- 51
2021-01-13 18:00:00 12.5 3 Sur 15 Sudeste 0 -- -- 42
2021-01-13 17:00:00 14.7 8 Sudeste 15 Sudeste 0 -- -- 37
2021-01-13 16:00:00 16 7 Este 17 Sudoeste 0 -- -- 32
2021-01-13 15:00:00 16.1 7 Oeste 21 Oeste 0 -- -- 32
2021-01-13 14:00:00 14.7 9 Oeste 20 Oeste 0 -- -- 35
2021-01-13 13:00:00 13.5 9 Noroeste 21 Oeste 0 -- -- 34
2021-01-13 12:00:00 11.6 8 Oeste 23 Oeste 0 -- -- 36
2021-01-13 11:00:00 9.1 11 Oeste 28 Sudoeste 0 -- -- 42
2021-01-13 10:00:00 6.5 13 Oeste 26 Noroeste 0 -- -- 46
2021-01-13 09:00:00 3.9 15 Oeste 28 Oeste 0 -- -- 54
2021-01-13 08:00:00 3.8 14 Oeste 28 Oeste 0 -- -- 55
2021-01-13 07:00:00 4.9 15 Oeste 29 Oeste 0 -- -- 49
2021-01-13 06:00:00 5 16 Oeste 28 Oeste 0 -- -- 48
2021-01-13 05:00:00 4.2 10 Oeste 25 Oeste 0 -- -- 55
2021-01-13 04:00:00 4.3 9 Oeste 23 Sudoeste 0 -- -- 55
2021-01-13 03:00:00 4.8 15 Oeste 26 Noroeste 0 -- -- 55
2021-01-13 02:00:00 5.2 13 Oeste 28 Oeste 0 -- -- 54
2021-01-13 01:00:00 5.3 13 Oeste 26 Sudoeste 0 -- -- 55
2021-01-13 00:00:00 4.5 14 Oeste 30 Oeste 0 -- -- 60
2021-01-12 23:00:00 4.4 15 Oeste 28 Oeste 0 -- -- 64
2021-01-12 22:00:00 4.1 11 Oeste 23 Sudoeste 0 -- -- 68
2021-01-12 21:00:00 4.6 7 Oeste 17 Oeste 0 -- -- 61
2021-01-12 20:00:00 5.5 9 Oeste 16 Oeste 0 -- -- 54
2021-01-12 19:00:00 7.2 8 Oeste 16 Oeste 0 -- -- 47
2021-01-12 18:00:00 9.2 5 Oeste 21 Norte 0 -- -- 42
2021-01-12 17:00:00 10.9 13 Noroeste 26 Noroeste 0 -- -- 38
2021-01-12 16:00:00 11.2 14 Noroeste 24 Noroeste 0 -- -- 42
2021-01-12 15:00:00 10.6 14 Oeste 24 Oeste 0 -- -- 49
2021-01-12 14:00:00 9.2 14 Oeste 36 Noroeste 0 -- -- 53
2021-01-12 13:00:00 8.1 26 Noroeste 37 Noroeste 0 -- -- 54
2021-01-12 12:00:00 6.5 26 Noroeste 33 Noroeste 0 -- -- 59
2021-01-12 11:00:00 5.2 19 Noroeste 32 Noroeste 0 -- -- 60
2021-01-12 10:00:00 3.6 25 Noroeste 33 Norte 0 -- -- 65
2021-01-12 09:00:00 1.9 13 Noroeste 24 Oeste 0 -- -- 77
2021-01-12 08:00:00 0.9 8 Oeste 18 Oeste 0 -- -- 84
2021-01-12 07:00:00 0.9 7 Sudoeste 19 Sudoeste 0 -- -- 82
2021-01-12 06:00:00 1.2 6 Oeste 29 Noroeste 0 -- -- 80
2021-01-12 05:00:00 1.3 9 Oeste 22 Oeste 0 -- -- 80
2021-01-12 04:00:00 2.2 8 Oeste 23 Oeste 0 -- -- 74
2021-01-12 03:00:00 2.7 17 Noroeste 28 Oeste 0 -- -- 71
2021-01-12 02:00:00 2.9 20 Oeste 30 Noroeste 0 -- -- 70
2021-01-12 01:00:00 3.4 17 Oeste 26 Oeste 0 -- -- 67
2021-01-12 00:00:00 3.2 9 Oeste 19 Oeste 0 -- -- 69
2021-01-11 23:00:00 3.5 13 Oeste 22 Sudoeste 0 -- -- 71
2021-01-11 22:00:00 4.4 7 Oeste 23 Oeste 0 -- -- 70
2021-01-11 21:00:00 5.1 9 Oeste 18 Noroeste 0 -- -- 71
2021-01-11 20:00:00 6.1 9 Noroeste 17 Noroeste 0 -- -- 71
2021-01-11 19:00:00 7.1 10 Noroeste 17 Noroeste 0 -- -- 69
2021-01-11 18:00:00 8.8 6 Norte 14 Noroeste 0 -- -- 66
2021-01-11 17:00:00 9.8 8 Noroeste 14 Noroeste 0 -- -- 61
2021-01-11 16:00:00 10.3 7 Noroeste 18 Norte 0 -- -- 61
2021-01-11 15:00:00 10.3 10 Noroeste 18 Noroeste 0 -- -- 59
2021-01-11 14:00:00 9.9 11 Noroeste 17 Noroeste 0 -- -- 62
2021-01-11 13:00:00 9.5 7 Oeste 13 Oeste 0 -- -- 69
2021-01-11 12:00:00 7.5 7 Noroeste 15 Noroeste 0 -- -- 76
2021-01-11 11:00:00 6.1 11 Noroeste 22 Noroeste 0 -- -- 80
2021-01-11 10:00:00 5.4 6 Oeste 25 Oeste 0 -- -- 81
2021-01-11 09:00:00 4.8 6 Oeste 19 Oeste 0 -- -- 84
2021-01-11 08:00:00 4.4 5 Oeste 17 Oeste 0 -- -- 85
2021-01-11 07:00:00 4.4 8 Oeste 19 Oeste 0 -- -- 85
2021-01-11 06:00:00 4.6 5 Oeste 20 Sudoeste 0 -- -- 86
2021-01-11 05:00:00 4.4 8 Oeste 18 Sudoeste 0 -- -- 87
2021-01-11 04:00:00 4.5 4 Sudoeste 13 Oeste 0 -- -- 86
2021-01-11 03:00:00 5.1 5 Oeste 18 Noroeste 0 -- -- 85
2021-01-11 02:00:00 5.5 4 Oeste 17 Noroeste 0 -- -- 84
2021-01-11 01:00:00 5.4 5 Oeste 15 Noroeste 0 -- -- 86
2021-01-11 00:00:00 5.3 5 Oeste 15 Oeste 0 -- -- 86
2021-01-10 23:00:00 5.1 6 Oeste 14 Oeste 0 -- -- 89
2021-01-10 22:00:00 4.4 5 Oeste 13 Sudoeste 0 -- -- 90
2021-01-10 21:00:00 5.1 5 Oeste 17 Sudoeste 0 -- -- 87
2021-01-10 20:00:00 4.7 6 Oeste 14 Noroeste 0 -- -- 87
2021-01-10 19:00:00 5.2 8 Noroeste 10 Noroeste 0 -- -- 83
2021-01-10 18:00:00 6.6 0 Calma 5 Nordeste 0 -- -- 82
2021-01-10 17:00:00 7.7 3 Noroeste 11 Noroeste 0 -- -- 77
2021-01-10 16:00:00 7.7 11 Noroeste 17 Noroeste 0 -- -- 76
2021-01-10 15:00:00 6.7 4 Oeste 14 Oeste 0 -- -- 85
2021-01-10 14:00:00 5.8 4 Oeste 14 Noroeste 0.4 -- -- 88
2021-01-10 13:00:00 5.9 10 Noroeste 23 Noroeste 0.2 -- -- 84
2021-01-10 12:00:00 5.7 12 Noroeste 21 Noroeste 0 -- -- 82
2021-01-10 11:00:00 5.2 6 Oeste 19 Oeste 0 -- -- 83
2021-01-10 10:00:00 4.4 5 Oeste 25 Oeste 0 -- -- 86
2021-01-10 09:00:00 3.5 5 Oeste 14 Oeste 0 -- -- 88
2021-01-10 08:00:00 3.3 5 Oeste 18 Oeste 0 -- -- 88
2021-01-10 07:00:00 3.3 8 Oeste 15 Sudoeste 0 -- -- 90
2021-01-10 06:00:00 3.4 8 Oeste 17 Oeste 0.2 -- -- 91
2021-01-10 05:00:00 3.7 6 Oeste 17 Sudoeste 0.2 -- -- 91
2021-01-10 04:00:00 3.3 7 Oeste 13 Oeste 0 -- -- 93
2021-01-10 03:00:00 2.6 8 Oeste 14 Oeste 0 -- -- 93
2021-01-10 02:00:00 2.8 8 Oeste 16 Oeste 0 -- -- 93
2021-01-10 01:00:00 2.8 9 Oeste 14 Oeste 0 -- -- 93
2021-01-10 00:00:00 3.1 7 Oeste 18 Oeste 0 -- -- 92
2021-01-09 23:00:00 3.7 10 Oeste 18 Oeste 0 -- -- 92
2021-01-09 22:00:00 4.1 9 Oeste 17 Sudoeste 0 -- -- 91
2021-01-09 21:00:00 4.6 10 Oeste 21 Sudoeste 0 -- -- 91
2021-01-09 20:00:00 5 7 Oeste 19 Oeste 0 -- -- 90
2021-01-09 19:00:00 6.1 5 Oeste 24 Noroeste 0 -- -- 88
2021-01-09 18:00:00 6.9 13 Noroeste 24 Noroeste 0 -- -- 89
2021-01-09 17:00:00 7.5 13 Noroeste 22 Noroeste 0 -- -- 89
2021-01-09 16:00:00 8.3 9 Noroeste 18 Noroeste 0 -- -- 88
2021-01-09 15:00:00 8.8 0 Calma 9 Nordeste 0 -- -- 88
2021-01-09 14:00:00 7.9 3 Nordeste 8 Nordeste 0 -- -- 90
2021-01-09 13:00:00 7.1 4 Noroeste 8 Sudoeste 0 -- -- 95
2021-01-09 12:00:00 6.3 0 Calma 7 Noroeste 0 -- -- 97
2021-01-09 11:00:00 5.5 3 Sudoeste 17 Sudoeste 0 -- -- 98
2021-01-09 10:00:00 4.6 9 Oeste 16 Oeste 0 -- -- 98
2021-01-09 09:00:00 4.2 5 Oeste 18 Oeste 0 -- -- 98
2021-01-09 08:00:00 4.2 8 Oeste 21 Sudoeste 0 -- -- 98
2021-01-09 07:00:00 4.1 7 Oeste 20 Sudoeste 0 -- -- 98
2021-01-09 06:00:00 4.1 6 Oeste 19 Sudoeste 0.4 -- -- 98
2021-01-09 05:00:00 4.2 9 Oeste 17 Oeste 0.2 -- -- 98
2021-01-09 04:00:00 4.3 9 Oeste 25 Noroeste 0.2 -- -- 98
2021-01-09 03:00:00 4.2 14 Noroeste 23 Noroeste 1.4 -- -- 99
2021-01-09 02:00:00 4.4 8 Noroeste 15 Oeste 1.2 -- -- 99
2021-01-09 01:00:00 4.2 8 Oeste 19 Sudoeste 1.4 -- -- 99
2021-01-09 00:00:00 4 9 Oeste 19 Sudoeste 0.8 -- -- 98
2021-01-08 23:00:00 4 5 Oeste 13 Oeste 1.4 -- -- 98
2021-01-08 22:00:00 4 5 Oeste 15 Oeste 0.2 -- -- 98
2021-01-08 21:00:00 3.8 4 Oeste 14 Oeste 0.8 -- -- 98
2021-01-08 20:00:00 3.8 7 Oeste 14 Sudoeste 1 -- -- 98
2021-01-08 19:00:00 3.8 8 Oeste 16 Oeste 1.4 -- -- 98
2021-01-08 18:00:00 3.8 8 Oeste 21 Sudoeste 0.8 -- -- 98
2021-01-08 17:00:00 3.6 9 Oeste 21 Sudoeste 1 -- -- 98
2021-01-08 16:00:00 3.5 13 Oeste 22 Sudoeste 1 -- -- 98
2021-01-08 15:00:00 3.5 9 Oeste 19 Oeste 0.8 -- -- 98
2021-01-08 14:00:00 3.4 7 Oeste 19 Oeste 0.6 -- -- 98
2021-01-08 13:00:00 3.1 10 Oeste 21 Oeste 1.2 -- -- 98
2021-01-08 12:00:00 3.1 9 Oeste 19 Oeste 1.2 -- -- 98
2021-01-08 11:00:00 3 9 Oeste 17 Oeste 2.4 -- -- 98
2021-01-08 10:00:00 2.8 9 Oeste 24 Oeste 0.8 -- -- 98
2021-01-08 09:00:00 2.4 10 Oeste 21 Oeste 0.4 -- -- 97
2021-01-08 08:00:00 2.3 10 Oeste 19 Oeste 0.6 -- -- 97
2021-01-08 07:00:00 2.2 9 Oeste 23 Oeste 0.4 -- -- 97
2021-01-08 06:00:00 2.1 11 Oeste 24 Oeste 0.4 -- -- 96
2021-01-08 05:00:00 2.1 7 Oeste 17 Oeste 0.4 -- -- 96
2021-01-08 04:00:00 2.2 6 Oeste 21 Oeste 1 -- -- 96
2021-01-08 03:00:00 2.4 6 Oeste 18 Oeste 1.4 -- -- 95
2021-01-08 02:00:00 2.6 7 Oeste 21 Oeste 2.4 -- -- 94
2021-01-08 01:00:00 3.3 9 Oeste 19 Oeste 2.2 -- -- 94
2021-01-08 00:00:00 3.7 9 Oeste 18 Oeste 0.6 -- -- 93
2021-01-07 23:00:00 4 8 Oeste 19 Oeste 0.2 -- -- 92
2021-01-07 22:00:00 3.9 5 Oeste 15 Oeste 0 -- -- 92
2021-01-07 21:00:00 3.8 7 Oeste 21 Oeste 0 -- -- 93
2021-01-07 20:00:00 3.8 9 Oeste 21 Oeste 0 -- -- 94
2021-01-07 19:00:00 3.7 7 Oeste 21 Oeste 0 -- -- 94
2021-01-07 18:00:00 3.7 10 Oeste 23 Oeste 0 -- -- 94
2021-01-07 17:00:00 3.8 6 Oeste 22 Noroeste 0.6 -- -- 94
2021-01-07 16:00:00 3.9 12 Noroeste 21 Oeste 0.6 -- -- 94
2021-01-07 15:00:00 4 6 Oeste 19 Oeste 0.2 -- -- 95
2021-01-07 14:00:00 3.7 8 Oeste 19 Oeste 0.4 -- -- 95
2021-01-07 13:00:00 3.5 8 Oeste 19 Oeste 0.6 -- -- 95
2021-01-07 12:00:00 3.5 8 Oeste 19 Oeste 0.6 -- -- 96
2021-01-07 11:00:00 3 7 Oeste 21 Oeste 0.8 -- -- 96
2021-01-07 10:00:00 2.5 8 Oeste 18 Oeste 0.6 -- -- 96
2021-01-07 09:00:00 2 8 Oeste 19 Oeste 1 -- -- 95
2021-01-07 08:00:00 2.4 11 Oeste 19 Oeste 1.2 -- -- 93
2021-01-07 07:00:00 3.2 8 Oeste 14 Sudoeste 1.4 -- -- 93
2021-01-07 06:00:00 4.2 5 Sudoeste 10 Noroeste 2 -- -- 92
2021-01-07 05:00:00 4.6 4 Noroeste 10 Norte 0.4 -- -- 91
2021-01-07 04:00:00 4.7 3 Norte 12 Nordeste 0.6 -- -- 93
2021-01-07 03:00:00 5.1 5 Nordeste 17 Nordeste 0.8 -- -- 92
2021-01-07 02:00:00 5.5 6 Nordeste 12 Este 1 -- -- 91
2021-01-07 01:00:00 6 3 Nordeste 18 Este 0.8 -- -- 88
2021-01-07 00:00:00 6.4 10 Este 22 Este 0.6 -- -- 85
2021-01-06 23:00:00 6.8 10 Este 24 Este 0.4 -- -- 81
2021-01-06 22:00:00 7.8 11 Nordeste 23 Nordeste 0 -- -- 71
2021-01-06 21:00:00 8.2 7 Este 19 Este 0 -- -- 67
2021-01-06 20:00:00 8.4 4 Este 12 Este 0 -- -- 64
2021-01-06 19:00:00 8.5 4 Este 8 Este 0 -- -- 43
2021-01-06 18:00:00 9 4 Este 12 Este 0 -- -- 40
2021-01-06 17:00:00 9.5 8 Este 16 Este 0 -- -- 41
2021-01-06 16:00:00 9.9 8 Este 16 Este 0 -- -- 39
2021-01-06 15:00:00 10 10 Este 18 Este 0 -- -- 44
2021-01-06 14:00:00 9.5 8 Este 15 Este 0 -- -- 48
2021-01-06 13:00:00 9.4 2 Sudeste 9 Noroeste 0 -- -- 46
2021-01-06 12:00:00 8.1 5 Noroeste 14 Oeste 0 -- -- 47
2021-01-06 11:00:00 6.1 12 Oeste 18 Sudoeste 0 -- -- 51
2021-01-06 10:00:00 4.8 9 Oeste 17 Oeste 0 -- -- 54
2021-01-06 09:00:00 3.4 12 Oeste 21 Oeste 0 -- -- 58
2021-01-06 08:00:00 3 6 Oeste 16 Sudoeste 0 -- -- 60
2021-01-06 07:00:00 2.7 10 Oeste 18 Sudoeste 0 -- -- 60
2021-01-06 06:00:00 3.3 6 Oeste 18 Oeste 0 -- -- 59
2021-01-06 05:00:00 3.3 4 Oeste 18 Oeste 0 -- -- 60
2021-01-06 04:00:00 3 9 Oeste 17 Sudoeste 0 -- -- 60
2021-01-06 03:00:00 3.2 6 Oeste 19 Oeste 0 -- -- 58
2021-01-06 02:00:00 2.8 7 Oeste 16 Oeste 0 -- -- 58
2021-01-06 01:00:00 3.2 6 Oeste 15 Oeste 0 -- -- 56
2021-01-06 00:00:00 3.2 6 Oeste 15 Sudoeste 0 -- -- 57
2021-01-05 23:00:00 3.3 8 Oeste 17 Oeste 0 -- -- 55
2021-01-05 22:00:00 4.2 8 Oeste 14 Sudoeste 0 -- -- 52
2021-01-05 21:00:00 5.5 8 Oeste 15 Sudoeste 0 -- -- 49
2021-01-05 20:00:00 6 7 Oeste 11 Sudoeste 0 -- -- 47
2021-01-05 19:00:00 6.6 6 Noroeste 10 Norte 0 -- -- 45
2021-01-05 18:00:00 8.2 3 Norte 9 Nordeste 0 -- -- 42
2021-01-05 17:00:00 9.7 2 Nordeste 8 Este 0 -- -- 37
2021-01-05 16:00:00 11 6 Noroeste 18 Noroeste 0 -- -- 31
2021-01-05 15:00:00 11 11 Noroeste 21 Norte 0 -- -- 33
2021-01-05 14:00:00 10.9 8 Norte 30 Noroeste 0 -- -- 34
2021-01-05 13:00:00 9.8 14 Noroeste 28 Noroeste 0 -- -- 39
2021-01-05 12:00:00 8.5 8 Oeste 21 Noroeste 0 -- -- 46
2021-01-05 11:00:00 6.2 14 Noroeste 21 Noroeste 0 -- -- 55
2021-01-05 10:00:00 2.8 6 Oeste 14 Oeste 0 -- -- 67
2021-01-05 09:00:00 0.8 9 Oeste 17 Oeste 0 -- -- 74
2021-01-05 08:00:00 0.2 9 Oeste 16 Oeste 0 -- -- 76
2021-01-05 07:00:00 0.3 11 Oeste 18 Oeste 0 -- -- 75
2021-01-05 06:00:00 1.2 7 Oeste 17 Sudoeste 0 -- -- 73
2021-01-05 05:00:00 2.6 7 Oeste 15 Noroeste 0 -- -- 68
2021-01-05 04:00:00 2.6 8 Noroeste 15 Noroeste 0 -- -- 71
2021-01-05 03:00:00 2.8 5 Oeste 17 Sudoeste 0 -- -- 71
2021-01-05 02:00:00 3.4 8 Sudoeste 16 Oeste 0 -- -- 69
2021-01-05 01:00:00 4.5 9 Sudoeste 19 Oeste 0 -- -- 67
2021-01-05 00:00:00 5.3 9 Sudoeste 13 Sudoeste 0 -- -- 63
2021-01-04 23:00:00 6.2 5 Sudoeste 17 Noroeste 0 -- -- 59
2021-01-04 22:00:00 7.5 14 Noroeste 21 Noroeste 0 -- -- 55
2021-01-04 21:00:00 6.9 6 Oeste 14 Oeste 0 -- -- 57
2021-01-04 20:00:00 7.4 7 Sudoeste 13 Sudoeste 0 -- -- 55
2021-01-04 19:00:00 8.6 6 Oeste 22 Noroeste 0 -- -- 50
2021-01-04 18:00:00 9.6 8 Norte 22 Norte 0 -- -- 46
2021-01-04 17:00:00 10.5 13 Norte 23 Norte 0 -- -- 44
2021-01-04 16:00:00 11.6 13 Noroeste 24 Noroeste 0 -- -- 39
2021-01-04 15:00:00 13.2 17 Noroeste 36 Noroeste 0 -- -- 35
2021-01-04 14:00:00 12.9 17 Noroeste 35 Oeste 0 -- -- 34
2021-01-04 13:00:00 12.3 19 Noroeste 35 Oeste 0 -- -- 34
2021-01-04 12:00:00 11.2 17 Oeste 31 Oeste 0 -- -- 36
2021-01-04 11:00:00 8.1 9 Oeste 22 Oeste 0 -- -- 45
2021-01-04 10:00:00 5.3 3 Noroeste 11 Sudoeste 0 -- -- 54
2021-01-04 09:00:00 2.5 3 Oeste 17 Oeste 0 -- -- 59
2021-01-04 08:00:00 3.4 10 Noroeste 17 Noroeste 0 -- -- 55
2021-01-04 07:00:00 2.6 4 Oeste 17 Oeste 0 -- -- 57
2021-01-04 06:00:00 2.2 5 Oeste 12 Oeste 0 -- -- 58
2021-01-04 05:00:00 3 4 Oeste 20 Oeste 0 -- -- 54
2021-01-04 04:00:00 2.3 7 Oeste 17 Noroeste 0 -- -- 55
2021-01-04 03:00:00 2.4 11 Noroeste 17 Oeste 0 -- -- 53
2021-01-04 02:00:00 1.2 9 Oeste 15 Sudoeste 0 -- -- 53
2021-01-04 01:00:00 1.7 3 Sudoeste 20 Noroeste 0 -- -- 50
2021-01-04 00:00:00 3.2 11 Noroeste 18 Oeste 0 -- -- 46
2021-01-03 23:00:00 1.2 9 Oeste 12 Sudoeste 0 -- -- 54
2021-01-03 22:00:00 2.3 5 Oeste 15 Sudoeste 0 -- -- 51
2021-01-03 21:00:00 4 8 Oeste 12 Sudoeste 0 -- -- 50
2021-01-03 20:00:00 5.9 7 Sudoeste 14 Noroeste 0 -- -- 45
2021-01-03 19:00:00 7.4 11 Noroeste 26 Noroeste 0 -- -- 41
2021-01-03 18:00:00 8.9 17 Noroeste 32 Noroeste 0 -- -- 37
2021-01-03 17:00:00 10.2 23 Noroeste 39 Noroeste 0 -- -- 34
2021-01-03 16:00:00 10.9 28 Noroeste 46 Noroeste 0 -- -- 32
2021-01-03 15:00:00 11.1 25 Noroeste 48 Noroeste 0 -- -- 32
2021-01-03 14:00:00 10.7 35 Noroeste 52 Noroeste 0 -- -- 33
2021-01-03 13:00:00 10.2 26 Noroeste 46 Noroeste 0 -- -- 34
2021-01-03 12:00:00 9.6 23 Noroeste 47 Noroeste 0 -- -- 36
2021-01-03 11:00:00 8.3 16 Noroeste 47 Noroeste 0 -- -- 39
2021-01-03 10:00:00 6.6 30 Noroeste 48 Noroeste 0 -- -- 41
2021-01-03 09:00:00 5.6 17 Noroeste 42 Noroeste 0 -- -- 42
2021-01-03 08:00:00 5.2 28 Noroeste 44 Oeste 0 -- -- 44
2021-01-03 07:00:00 5.1 22 Noroeste 44 Noroeste 0 -- -- 44
2021-01-03 06:00:00 5 22 Noroeste 48 Oeste 0 -- -- 43
2021-01-03 05:00:00 5 15 Noroeste 46 Oeste 0 -- -- 41
2021-01-03 04:00:00 5 24 Noroeste 46 Noroeste 0 -- -- 43
2021-01-03 03:00:00 5.1 21 Oeste 50 Oeste 0 -- -- 44
2021-01-03 02:00:00 5.2 21 Noroeste 52 Noroeste 0 -- -- 45
2021-01-03 01:00:00 5.3 17 Oeste 33 Noroeste 0 -- -- 46
2021-01-03 00:00:00 5.7 14 Noroeste 40 Noroeste 0 -- -- 46
2021-01-02 23:00:00 6.3 21 Oeste 39 Oeste 0 -- -- 46
2021-01-02 22:00:00 6.4 13 Noroeste 34 Noroeste 0 -- -- 47
2021-01-02 21:00:00 6.8 20 Noroeste 54 Noroeste 0 -- -- 46
2021-01-02 20:00:00 6.9 28 Noroeste 58 Noroeste 0 -- -- 45
2021-01-02 19:00:00 7.2 30 Noroeste 54 Noroeste 0 -- -- 43
2021-01-02 18:00:00 7.6 39 Noroeste 64 Noroeste 0 -- -- 41
2021-01-02 17:00:00 8.2 37 Noroeste 59 Norte 0 -- -- 38
2021-01-02 16:00:00 9.3 29 Noroeste 55 Oeste 0 -- -- 36
2021-01-02 15:00:00 9.4 33 Noroeste 60 Noroeste 0 -- -- 36
2021-01-02 14:00:00 9.8 32 Noroeste 56 Oeste 0 -- -- 35